Time;durP1;ratioP1;P1;durP2;ratioP2;P2;SDS_P1;SDS_P2;PMS_P1;PMS_P2;Temp;Humidity;BMP_temperature;BMP_pressure;BME280_temperature;BME280_humidity;BME280_pressure;Samples;Min_cycle;Max_cycle;Signal;HPM_P1;HPM_P2
2023/08/26 00:00:19;;;;;;;;;;;;;;;26.07;46.60;99535.03;3142146;28;19931;-74
2023/08/26 00:01:50;;;;;;;;;;;;;;;26.05;46.45;99534.38;3138841;28;19920;-73
2023/08/26 00:03:21;;;;;;;;;;;;;;;26.01;46.80;99534.94;3147210;28;19973;-73
2023/08/26 00:04:52;;;;;;;;;;;;;;;25.95;46.62;99533.78;3146670;28;19931;-74
2023/08/26 00:06:23;;;;;;;;;;;;;;;25.95;46.64;99539.13;3141451;28;19924;-73
2023/08/26 00:07:54;;;;;;;;;;;;;;;25.96;46.62;99546.09;3139582;28;19928;-73
2023/08/26 00:09:25;;;;;;;;;;;;;;;25.99;46.70;99548.44;3138819;28;20382;-74
2023/08/26 00:10:58;;;;;;;;;;;;;;;26.00;46.51;99538.56;3129203;28;20307;-73
2023/08/26 00:12:29;;;;;;;;;;;;;;;25.97;46.82;99542.44;3146876;28;20409;-73
2023/08/26 00:14:01;;;;;;;;;;;;;;;25.95;46.85;99536.44;3140721;28;19932;-72
2023/08/26 00:15:31;;;;;;;;;;;;;;;25.93;46.57;99535.78;3146804;28;19924;-74
2023/08/26 00:17:04;;;;;;;;;;;;;;;25.92;46.68;99542.13;3147004;28;19921;-73
2023/08/26 00:18:34;;;;;;;;;;;;;;;25.91;46.60;99537.81;3147054;28;19920;-73
2023/08/26 00:20:08;;;;;;;;;;;;;;;25.94;46.56;99533.94;3146787;28;19926;-74
2023/08/26 00:21:39;;;;;;;;;;;;;;;25.95;46.66;99530.28;3147153;28;19924;-73
2023/08/26 00:23:10;;;;;;;;;;;;;;;25.97;46.27;99538.94;3147015;28;20313;-74
2023/08/26 00:24:41;;;;;;;;;;;;;;;25.95;46.38;99531.13;3146535;28;19928;-74
2023/08/26 00:26:14;;;;;;;;;;;;;;;25.95;46.41;99541.78;3146841;28;20338;-73
2023/08/26 00:27:44;;;;;;;;;;;;;;;25.93;46.42;99532.28;3147043;28;19921;-74
2023/08/26 00:29:16;;;;;;;;;;;;;;;25.91;46.71;99535.16;3140882;28;19921;-70
2023/08/26 00:30:55;;;;;;;;;;;;;;;25.89;46.74;99531.81;3146320;28;19967;-74
2023/08/26 00:32:25;;;;;;;;;;;;;;;25.86;46.57;99534.84;3146662;28;19927;-73
2023/08/26 00:33:57;;;;;;;;;;;;;;;25.84;46.55;99537.66;3146569;28;19947;-73
2023/08/26 00:35:29;;;;;;;;;;;;;;;25.82;46.90;99538.84;3146958;28;19978;-73
2023/08/26 00:37:00;;;;;;;;;;;;;;;25.80;46.85;99540.84;3146733;28;20325;-73
2023/08/26 00:38:31;;;;;;;;;;;;;;;25.77;46.86;99538.53;3146876;28;19920;-73
2023/08/26 00:40:02;;;;;;;;;;;;;;;25.74;46.58;99539.69;3146883;28;19924;-73
2023/08/26 00:41:35;;;;;;;;;;;;;;;25.74;46.95;99533.53;3146522;28;19926;-73
2023/08/26 00:43:06;;;;;;;;;;;;;;;25.73;46.54;99535.34;3142299;28;19931;-74
2023/08/26 00:44:38;;;;;;;;;;;;;;;25.73;46.68;99537.19;3146664;28;19967;-74
2023/08/26 00:46:08;;;;;;;;;;;;;;;25.72;46.76;99538.19;3122279;28;19925;-73
2023/08/26 00:47:40;;;;;;;;;;;;;;;25.71;46.83;99533.88;3145152;28;19942;-73
2023/08/26 00:49:11;;;;;;;;;;;;;;;25.68;46.78;99535.06;3146350;28;19921;-73
2023/08/26 00:50:44;;;;;;;;;;;;;;;25.67;46.88;99530.72;3146364;28;19924;-74
2023/08/26 00:52:14;;;;;;;;;;;;;;;25.67;46.69;99530.72;3146883;28;20420;-74
2023/08/26 00:53:46;;;;;;;;;;;;;;;25.64;46.64;99534.56;3146585;28;19920;-74
2023/08/26 00:55:17;;;;;;;;;;;;;;;25.61;46.83;99532.22;3146259;28;19924;-74
2023/08/26 00:56:50;;;;;;;;;;;;;;;25.57;46.82;99538.09;3146699;28;19921;-73
2023/08/26 00:58:21;;;;;;;;;;;;;;;25.54;46.85;99536.59;3142010;28;19978;-73
2023/08/26 00:59:52;;;;;;;;;;;;;;;25.52;46.81;99535.94;3146063;28;19924;-73
2023/08/26 01:01:24;;;;;;;;;;;;;;;25.53;46.96;99532.28;3136189;28;19924;-73
2023/08/26 01:02:56;;;;;;;;;;;;;;;25.52;46.86;99530.59;3146331;28;20321;-73
2023/08/26 01:04:27;;;;;;;;;;;;;;;25.52;47.16;99533.25;3146114;28;19924;-73
2023/08/26 01:05:59;;;;;;;;;;;;;;;25.50;47.13;99527.28;3142216;28;19921;-73
2023/08/26 01:07:29;;;;;;;;;;;;;;;25.47;47.28;99524.97;3146116;28;19940;-73
2023/08/26 01:09:01;;;;;;;;;;;;;;;25.45;47.31;99523.47;3146278;28;19961;-74
2023/08/26 01:10:36;;;;;;;;;;;;;;;25.42;46.95;99521.97;3145703;28;19990;-73
2023/08/26 01:12:16;;;;;;;;;;;;;;;25.39;47.27;99520.47;3142712;28;20324;-74
2023/08/26 01:13:50;;;;;;;;;;;;;;;25.38;47.20;99526.84;3137209;28;19924;-73
2023/08/26 01:15:22;;;;;;;;;;;;;;;25.38;46.96;99528.66;3146245;28;19928;-74
2023/08/26 01:16:53;;;;;;;;;;;;;;;25.39;47.03;99525.00;3146238;28;19920;-73
2023/08/26 01:18:25;;;;;;;;;;;;;;;25.39;47.23;99530.31;3146227;28;19925;-73
2023/08/26 01:19:57;;;;;;;;;;;;;;;25.36;46.93;99525.34;3145889;28;20309;-73
2023/08/26 01:21:32;;;;;;;;;;;;;;;25.31;47.25;99523.16;3146385;28;20370;-74
2023/08/26 01:23:05;;;;;;;;;;;;;;;25.24;47.47;99516.88;3145920;28;19931;-73
2023/08/26 01:24:39;;;;;;;;;;;;;;;25.18;47.62;99518.38;3145712;28;19920;-73
2023/08/26 01:26:10;;;;;;;;;;;;;;;25.17;47.46;99515.88;3145547;28;20007;-73
2023/08/26 01:27:41;;;;;;;;;;;;;;;25.16;47.30;99517.72;3142180;28;19920;-73
2023/08/26 01:29:12;;;;;;;;;;;;;;;25.17;47.50;99522.06;3146181;28;19974;-74
2023/08/26 01:30:44;;;;;;;;;;;;;;;25.17;47.52;99511.41;3145535;28;19920;-73
2023/08/26 01:32:17;;;;;;;;;;;;;;;25.17;47.52;99510.53;3146032;28;19920;-73
2023/08/26 01:33:51;;;;;;;;;;;;;;;25.15;47.44;99513.41;3146066;28;19920;-73
2023/08/26 01:35:22;;;;;;;;;;;;;;;25.16;47.43;99508.88;3145480;28;19931;-73
2023/08/26 01:36:57;;;;;;;;;;;;;;;25.19;47.43;99511.22;3145713;28;20321;-73
2023/08/26 01:38:28;;;;;;;;;;;;;;;25.12;47.42;99508.38;3145900;28;19928;-73
2023/08/26 01:40:03;;;;;;;;;;;;;;;25.10;47.12;99506.88;3145681;28;19920;-73
2023/08/26 01:41:35;;;;;;;;;;;;;;;25.10;47.04;99513.03;3141029;28;20044;-73
2023/08/26 01:43:07;;;;;;;;;;;;;;;25.10;47.48;99506.88;3145556;28;19920;-73
2023/08/26 01:44:38;;;;;;;;;;;;;;;25.07;47.14;99509.88;3145776;28;19927;-73
2023/08/26 01:46:10;;;;;;;;;;;;;;;25.08;46.99;99511.53;3146154;28;20298;-73
2023/08/26 01:47:41;;;;;;;;;;;;;;;25.06;47.27;99513.56;3145834;28;19974;-73
2023/08/26 01:49:12;;;;;;;;;;;;;;;25.01;47.34;99500.72;3145589;28;20385;-73
2023/08/26 01:50:43;;;;;;;;;;;;;;;25.00;47.06;99506.25;3145785;28;19924;-73
2023/08/26 01:52:15;;;;;;;;;;;;;;;24.98;46.92;99511.72;3145916;28;20003;-73
2023/08/26 01:53:45;;;;;;;;;;;;;;;24.92;47.03;99517.72;3145703;28;19924;-73
2023/08/26 01:55:18;;;;;;;;;;;;;;;24.92;47.29;99518.56;3145454;28;20033;-73
2023/08/26 01:56:48;;;;;;;;;;;;;;;24.90;47.25;99517.06;3140534;28;20416;-73
2023/08/26 01:58:20;;;;;;;;;;;;;;;24.91;47.14;99506.25;3145792;28;19924;-72
2023/08/26 01:59:51;;;;;;;;;;;;;;;24.91;47.23;99511.56;3145668;28;19927;-73
2023/08/26 02:01:22;;;;;;;;;;;;;;;24.96;46.83;99516.38;3135599;28;19924;-73
2023/08/26 02:02:54;;;;;;;;;;;;;;;24.98;46.67;99511.72;3137174;28;20302;-72
2023/08/26 02:04:24;;;;;;;;;;;;;;;25.00;46.94;99514.25;3145809;28;19936;-73
2023/08/26 02:05:56;;;;;;;;;;;;;;;25.00;46.92;99516.91;3145679;28;19924;-73
2023/08/26 02:07:26;;;;;;;;;;;;;;;24.98;46.64;99512.56;3145409;28;19931;-72
2023/08/26 02:08:58;;;;;;;;;;;;;;;25.00;46.81;99516.91;3145483;28;19920;-73
2023/08/26 02:10:31;;;;;;;;;;;;;;;24.96;46.70;99513.72;3124472;28;19920;-73
2023/08/26 02:12:01;;;;;;;;;;;;;;;24.92;47.06;99515.06;3145272;28;19925;-73
2023/08/26 02:13:33;;;;;;;;;;;;;;;24.88;46.85;99514.56;3138224;28;19950;-73
2023/08/26 02:15:04;;;;;;;;;;;;;;;24.86;47.21;99526.41;3143591;28;19982;-73
2023/08/26 02:16:35;;;;;;;;;;;;;;;24.85;47.07;99519.41;3145369;28;19983;-72
2023/08/26 02:18:07;;;;;;;;;;;;;;;24.86;46.72;99515.75;3145800;28;19921;-73
2023/08/26 02:19:37;;;;;;;;;;;;;;;24.87;47.01;99525.38;3145181;28;20417;-73
2023/08/26 02:21:11;;;;;;;;;;;;;;;24.88;46.95;99517.25;3145242;28;19981;-73
2023/08/26 02:22:42;;;;;;;;;;;;;;;24.88;46.72;99517.25;3145039;28;19924;-73
2023/08/26 02:24:13;;;;;;;;;;;;;;;24.87;47.09;99514.72;3145489;28;19927;-73
2023/08/26 02:25:46;;;;;;;;;;;;;;;24.85;47.05;99522.09;3140633;28;19920;-73
2023/08/26 02:27:16;;;;;;;;;;;;;;;24.82;46.71;99525.09;3145175;28;19924;-73
2023/08/26 02:28:48;;;;;;;;;;;;;;;24.79;47.22;99517.41;3145195;28;20398;-73
2023/08/26 02:30:19;;;;;;;;;;;;;;;24.76;47.22;99523.91;3145516;28;19920;-73
2023/08/26 02:31:50;;;;;;;;;;;;;;;24.72;47.21;99523.41;3145333;28;20352;-73
2023/08/26 02:33:21;;;;;;;;;;;;;;;24.70;47.01;99530.75;3145447;28;20372;-72
2023/08/26 02:34:52;;;;;;;;;;;;;;;24.66;47.21;99516.06;3145326;28;19924;-73
2023/08/26 02:36:24;;;;;;;;;;;;;;;24.64;47.02;99522.56;3145369;28;19920;-73
2023/08/26 02:37:54;;;;;;;;;;;;;;;24.64;47.31;99514.56;3145077;28;19920;-73
2023/08/26 02:39:26;;;;;;;;;;;;;;;24.64;46.89;99512.78;3143605;28;19924;-73
2023/08/26 02:40:58;;;;;;;;;;;;;;;24.65;47.08;99502.94;3142278;28;19931;-73
2023/08/26 02:42:29;;;;;;;;;;;;;;;24.64;47.14;99515.44;3145402;28;19924;-73
2023/08/26 02:44:00;;;;;;;;;;;;;;;24.63;47.02;99507.59;3145322;28;20012;-73
2023/08/26 02:45:32;;;;;;;;;;;;;;;24.61;47.25;99510.44;3144967;28;20309;-72
2023/08/26 02:47:03;;;;;;;;;;;;;;;24.62;46.98;99508.59;3145333;28;20416;-73
2023/08/26 02:48:34;;;;;;;;;;;;;;;24.62;47.10;99505.94;3145405;28;19926;-73
2023/08/26 02:50:05;;;;;;;;;;;;;;;24.58;47.05;99508.13;3145071;28;19920;-73
2023/08/26 02:51:37;;;;;;;;;;;;;;;24.61;46.88;99514.91;3145853;28;19925;-73
2023/08/26 02:53:07;;;;;;;;;;;;;;;24.62;46.99;99509.44;3148656;28;19920;-73
2023/08/26 02:54:39;;;;;;;;;;;;;;;24.64;46.88;99510.09;3144980;28;19921;-73
2023/08/26 02:56:11;;;;;;;;;;;;;;;24.65;46.89;99506.44;3149303;28;19927;-73
2023/08/26 02:57:43;;;;;;;;;;;;;;;24.66;46.98;99507.25;3149188;28;19928;-73
2023/08/26 02:59:13;;;;;;;;;;;;;;;24.63;46.99;99511.09;3124333;28;19983;-73
2023/08/26 03:00:45;;;;;;;;;;;;;;;24.62;46.94;99514.75;3140580;28;20011;-73
2023/08/26 03:02:16;;;;;;;;;;;;;;;24.63;47.20;99511.09;3148117;28;20061;-73
2023/08/26 03:03:47;;;;;;;;;;;;;;;24.66;47.13;99509.94;3149324;28;19924;-73
2023/08/26 03:05:19;;;;;;;;;;;;;;;24.67;47.32;99516.94;3149396;28;19920;-73
2023/08/26 03:06:49;;;;;;;;;;;;;;;24.64;46.94;99519.91;3148981;28;19943;-73
2023/08/26 03:08:21;;;;;;;;;;;;;;;24.61;47.31;99514.91;3149147;28;19920;-73
2023/08/26 03:09:51;;;;;;;;;;;;;;;24.60;46.96;99511.41;3144596;28;20381;-73
2023/08/26 03:11:24;;;;;;;;;;;;;;;24.61;47.09;99515.78;3149017;28;19921;-73
2023/08/26 03:12:55;;;;;;;;;;;;;;;24.63;46.92;99511.09;3143066;28;19925;-73
2023/08/26 03:14:26;;;;;;;;;;;;;;;24.65;46.88;99514.41;3149355;28;20337;-73
2023/08/26 03:15:57;;;;;;;;;;;;;;;24.67;47.00;99522.25;3149090;28;19924;-73
2023/08/26 03:17:29;;;;;;;;;;;;;;;24.66;46.94;99524.06;3149037;28;19920;-73
2023/08/26 03:18:59;;;;;;;;;;;;;;;24.67;47.04;99524.94;3149109;28;19921;-72
2023/08/26 03:20:32;;;;;;;;;;;;;;;24.68;46.90;99519.41;3148992;28;20286;-73
2023/08/26 03:22:03;;;;;;;;;;;;;;;24.71;46.94;99524.41;3149283;28;19928;-73
2023/08/26 03:23:35;;;;;;;;;;;;;;;24.72;47.17;99520.72;3144305;28;20374;-73
2023/08/26 03:25:06;;;;;;;;;;;;;;;24.73;47.15;99521.59;3124356;28;20016;-73
2023/08/26 03:26:39;;;;;;;;;;;;;;;24.71;47.31;99524.41;3147782;28;19924;-73
2023/08/26 03:28:09;;;;;;;;;;;;;;;24.71;47.31;99520.91;3149504;28;19992;-74
2023/08/26 03:29:41;;;;;;;;;;;;;;;24.69;47.31;99522.91;3148819;28;20368;-73
2023/08/26 03:31:11;;;;;;;;;;;;;;;24.66;47.09;99532.06;3148971;28;19924;-73
2023/08/26 03:32:43;;;;;;;;;;;;;;;24.64;47.45;99526.09;3149294;28;19924;-73
2023/08/26 03:34:14;;;;;;;;;;;;;;;24.64;47.51;99536.72;3148751;28;19924;-73
2023/08/26 03:35:45;;;;;;;;;;;;;;;24.64;47.45;99530.56;3149131;28;19920;-73
2023/08/26 03:37:16;;;;;;;;;;;;;;;24.62;47.58;99541.38;3148915;28;19920;-73
2023/08/26 03:38:47;;;;;;;;;;;;;;;24.62;47.34;99541.38;3145041;28;19930;-73
2023/08/26 03:40:22;;;;;;;;;;;;;;;24.64;47.26;99544.72;3148815;28;19921;-73
2023/08/26 03:41:55;;;;;;;;;;;;;;;24.67;47.58;99547.06;3148855;28;20345;-73
2023/08/26 03:43:25;;;;;;;;;;;;;;;24.67;47.55;99552.38;3149038;28;19935;-73
2023/08/26 03:44:57;;;;;;;;;;;;;;;24.66;47.42;99558.69;3148706;28;20266;-73
2023/08/26 03:46:27;;;;;;;;;;;;;;;24.67;47.15;99565.69;3149043;28;19920;-72
2023/08/26 03:47:59;;;;;;;;;;;;;;;24.67;47.20;99557.69;3149050;28;20378;-71
2023/08/26 03:49:30;;;;;;;;;;;;;;;24.67;47.31;99557.69;3149111;28;19982;-73
2023/08/26 03:51:02;;;;;;;;;;;;;;;24.68;47.54;99559.34;3149184;28;20085;-73
2023/08/26 03:52:33;;;;;;;;;;;;;;;24.69;47.15;99558.34;3145886;28;19936;-72
2023/08/26 03:54:04;;;;;;;;;;;;;;;24.70;47.25;99560.03;3146534;28;19924;-73
2023/08/26 03:55:36;;;;;;;;;;;;;;;24.72;47.58;99559.84;3146743;28;20313;-73
2023/08/26 03:57:09;;;;;;;;;;;;;;;24.71;47.57;99556.34;3148780;28;19939;-71
2023/08/26 03:58:40;;;;;;;;;;;;;;;24.70;47.55;99565.34;3140785;28;20337;-73
2023/08/26 04:00:12;;;;;;;;;;;;;;;24.70;47.29;99567.19;3144809;28;19931;-73
2023/08/26 04:01:43;;;;;;;;;;;;;;;24.71;47.69;99559.03;3139147;28;20372;-73
2023/08/26 04:03:14;;;;;;;;;;;;;;;24.72;47.70;99565.16;3147690;28;19942;-73
2023/08/26 04:04:45;;;;;;;;;;;;;;;24.72;47.37;99555.34;3146811;28;19924;-73
2023/08/26 04:06:17;;;;;;;;;;;;;;;24.73;47.34;99559.69;3146824;28;19920;-73
2023/08/26 04:07:48;;;;;;;;;;;;;;;24.75;47.49;99562.19;3142273;28;19926;-73
2023/08/26 04:09:19;;;;;;;;;;;;;;;24.75;47.38;99557.69;3146596;28;19973;-73
2023/08/26 04:10:53;;;;;;;;;;;;;;;24.77;47.34;99567.34;3146607;28;20333;-73
2023/08/26 04:12:26;;;;;;;;;;;;;;;24.76;47.79;99566.53;3147223;28;19931;-73
2023/08/26 04:13:56;;;;;;;;;;;;;;;24.78;47.73;99571.66;3137513;28;19924;-73
2023/08/26 04:15:28;;;;;;;;;;;;;;;24.78;47.50;99566.34;3146136;28;19927;-73
2023/08/26 04:16:59;;;;;;;;;;;;;;;24.77;47.58;99567.34;3146922;28;19974;-73
2023/08/26 04:18:30;;;;;;;;;;;;;;;24.76;47.54;99566.53;3146974;28;20336;-73
2023/08/26 04:20:02;;;;;;;;;;;;;;;24.75;47.96;99567.50;3146460;28;19928;-73
2023/08/26 04:21:34;;;;;;;;;;;;;;;24.68;48.00;99562.00;3145328;28;20325;-73
2023/08/26 04:23:04;;;;;;;;;;;;;;;24.61;48.56;99563.69;3144421;28;19932;-73
2023/08/26 04:24:36;;;;;;;;;;;;;;;24.55;48.65;99569.69;3146965;28;19920;-73
2023/08/26 04:26:06;;;;;;;;;;;;;;;24.47;49.24;99567.81;3147015;28;19931;-73
2023/08/26 04:27:39;;;;;;;;;;;;;;;24.41;49.27;99565.78;3146537;28;19924;-73
2023/08/26 04:29:10;;;;;;;;;;;;;;;24.39;49.55;99570.44;3146917;28;19920;-73
2023/08/26 04:30:41;;;;;;;;;;;;;;;24.34;49.45;99562.09;3146523;28;19921;-73
2023/08/26 04:32:13;;;;;;;;;;;;;;;24.33;49.64;99564.94;3146755;28;20626;-73
2023/08/26 04:33:44;;;;;;;;;;;;;;;24.29;50.02;99564.44;3146806;28;20458;-73
2023/08/26 04:35:16;;;;;;;;;;;;;;;24.28;49.87;99566.28;3146490;28;19920;-73
2023/08/26 04:36:46;;;;;;;;;;;;;;;24.26;49.97;99564.78;3141979;28;19924;-73
2023/08/26 04:38:18;;;;;;;;;;;;;;;24.26;49.92;99572.75;3146810;28;20389;-73
2023/08/26 04:39:49;;;;;;;;;;;;;;;24.26;49.95;99564.78;3146526;28;20321;-73
2023/08/26 04:41:20;;;;;;;;;;;;;;;24.28;50.17;99573.41;3146615;28;19930;-73
2023/08/26 04:42:53;;;;;;;;;;;;;;;24.30;49.93;99574.91;3146469;28;19925;-73
2023/08/26 04:44:25;;;;;;;;;;;;;;;24.36;49.92;99577.91;3146396;28;20316;-73
2023/08/26 04:45:56;;;;;;;;;;;;;;;24.38;49.99;99582.09;3146900;28;19921;-73
2023/08/26 04:47:27;;;;;;;;;;;;;;;24.42;49.74;99579.94;3146408;28;19930;-74
2023/08/26 04:48:58;;;;;;;;;;;;;;;24.47;49.52;99590.94;3146061;28;20393;-73
2023/08/26 04:50:30;;;;;;;;;;;;;;;24.49;49.56;99580.97;3143744;28;20031;-73
2023/08/26 04:52:00;;;;;;;;;;;;;;;24.54;49.41;99581.31;3141907;28;19927;-74
2023/08/26 04:53:32;;;;;;;;;;;;;;;24.59;49.56;99586.16;3146040;28;20507;-73
2023/08/26 04:55:04;;;;;;;;;;;;;;;24.63;49.14;99582.97;3146392;28;20316;-74
2023/08/26 04:56:35;;;;;;;;;;;;;;;24.66;49.29;99581.81;3146368;28;19928;-73
2023/08/26 04:58:08;;;;;;;;;;;;;;;24.67;49.49;99573.69;3143258;28;19932;-73
2023/08/26 04:59:40;;;;;;;;;;;;;;;24.68;49.70;99582.50;3137684;28;20413;-73
2023/08/26 05:01:11;;;;;;;;;;;;;;;24.69;49.75;99576.97;3135690;28;19940;-73
2023/08/26 05:02:42;;;;;;;;;;;;;;;24.73;49.46;99574.84;3146175;28;19925;-73
2023/08/26 05:04:13;;;;;;;;;;;;;;;24.78;49.27;99582.31;3146652;28;19924;-73
2023/08/26 05:05:44;;;;;;;;;;;;;;;24.82;49.22;99583.66;3141670;28;20374;-73
2023/08/26 05:07:16;;;;;;;;;;;;;;;24.85;49.23;99580.69;3146124;28;19920;-73
2023/08/26 05:08:47;;;;;;;;;;;;;;;24.87;49.28;99581.31;3146421;28;20726;-73
2023/08/26 05:10:18;;;;;;;;;;;;;;;24.89;49.69;99584.66;3146146;28;20423;-73
2023/08/26 05:11:49;;;;;;;;;;;;;;;24.89;49.61;99579.34;3145975;28;19920;-73
2023/08/26 05:13:21;;;;;;;;;;;;;;;24.88;49.44;99575.84;3140134;28;19928;-74
2023/08/26 05:14:53;;;;;;;;;;;;;;;24.91;49.77;99574.69;3142427;28;19932;-73
2023/08/26 05:16:23;;;;;;;;;;;;;;;24.91;49.60;99566.69;3146234;28;19939;-73
2023/08/26 05:17:55;;;;;;;;;;;;;;;24.92;49.88;99577.16;3145950;28;20230;-74
2023/08/26 05:19:25;;;;;;;;;;;;;;;24.95;49.60;99578.66;3146330;28;19928;-72
2023/08/26 05:20:57;;;;;;;;;;;;;;;24.96;49.63;99577.66;3142132;28;19924;-73
2023/08/26 05:22:27;;;;;;;;;;;;;;;25.01;49.60;99578.00;3145794;28;19978;-73
2023/08/26 05:24:00;;;;;;;;;;;;;;;25.05;49.87;99575.81;3146161;28;19974;-73
2023/08/26 05:25:30;;;;;;;;;;;;;;;25.08;49.47;99571.00;3158830;28;19942;-73
2023/08/26 05:27:03;;;;;;;;;;;;;;;25.13;49.44;99574.00;3158453;28;19924;-73
2023/08/26 05:28:35;;;;;;;;;;;;;;;25.19;49.31;99562.66;3158415;28;20408;-73
2023/08/26 05:30:07;;;;;;;;;;;;;;;25.27;49.68;99564.50;3158751;28;19920;-73
2023/08/26 05:31:38;;;;;;;;;;;;;;;25.37;49.27;99566.97;3158470;28;19924;-73
2023/08/26 05:33:10;;;;;;;;;;;;;;;25.48;49.43;99563.13;3158659;28;19920;-73
2023/08/26 05:34:40;;;;;;;;;;;;;;;25.57;49.11;99565.59;3155139;28;19920;-73
2023/08/26 05:36:12;;;;;;;;;;;;;;;25.70;48.95;99572.19;3157452;28;19930;-74
2023/08/26 05:37:45;;;;;;;;;;;;;;;25.83;48.91;99575.19;3158623;28;19931;-73
2023/08/26 05:39:16;;;;;;;;;;;;;;;25.98;49.11;99577.97;3158425;28;19920;-73
2023/08/26 05:40:48;;;;;;;;;;;;;;;26.14;48.81;99577.88;3158326;28;19924;-73
2023/08/26 05:42:18;;;;;;;;;;;;;;;26.26;48.92;99573.78;3158107;28;19920;-73
2023/08/26 05:43:51;;;;;;;;;;;;;;;26.41;48.63;99578.38;3158119;28;19942;-73
2023/08/26 05:45:22;;;;;;;;;;;;;;;26.57;48.50;99580.16;3158467;28;19924;-73
2023/08/26 05:46:55;;;;;;;;;;;;;;;26.73;48.46;99574.69;3154493;28;20381;-73
2023/08/26 05:48:27;;;;;;;;;;;;;;;26.87;48.10;99581.91;3150345;28;19962;-73
2023/08/26 05:49:58;;;;;;;;;;;;;;;26.98;47.89;99581.47;3152953;28;19931;-74
2023/08/26 05:51:30;;;;;;;;;;;;;;;27.06;47.80;99579.75;3157915;28;20317;-73
2023/08/26 05:53:00;;;;;;;;;;;;;;;27.14;47.91;99582.34;3158289;28;20400;-73
2023/08/26 05:54:32;;;;;;;;;;;;;;;27.23;47.50;99583.94;3154447;28;19924;-73
2023/08/26 05:56:02;;;;;;;;;;;;;;;27.33;47.35;99586.34;3158116;28;19928;-75
2023/08/26 05:57:34;;;;;;;;;;;;;;;27.47;47.63;99584.72;3133291;28;19933;-73
2023/08/26 05:59:07;;;;;;;;;;;;;;;27.57;47.26;99582.63;3156432;28;19931;-73
2023/08/26 06:00:37;;;;;;;;;;;;;;;27.64;47.03;99584.34;3150978;28;20404;-74
2023/08/26 06:02:09;;;;;;;;;;;;;;;27.80;46.98;99585.19;3154202;28;19924;-74
2023/08/26 06:03:39;;;;;;;;;;;;;;;27.90;47.17;99583.06;3157214;28;20293;-73
2023/08/26 06:05:11;;;;;;;;;;;;;;;27.97;46.86;99586.66;3154486;28;19926;-74
2023/08/26 06:06:41;;;;;;;;;;;;;;;28.03;46.97;99585.06;3157987;28;19928;-74
2023/08/26 06:08:13;;;;;;;;;;;;;;;28.03;46.62;99579.72;3158307;28;20012;-74
2023/08/26 06:09:44;;;;;;;;;;;;;;;28.08;46.77;99582.66;3158219;28;20406;-74
2023/08/26 06:11:15;;;;;;;;;;;;;;;28.20;47.08;99585.69;3158136;28;20077;-74
2023/08/26 06:12:47;;;;;;;;;;;;;;;28.28;46.51;99589.09;3157098;28;19947;-74
2023/08/26 06:14:19;;;;;;;;;;;;;;;28.40;46.39;99588.59;3149511;28;19923;-74
2023/08/26 06:15:54;;;;;;;;;;;;;;;28.56;46.32;99591.03;3158157;28;19926;-74
2023/08/26 06:17:24;;;;;;;;;;;;;;;28.66;46.23;99591.56;3158131;28;20661;-74
2023/08/26 06:18:56;;;;;;;;;;;;;;;28.74;46.44;99594.09;3153715;28;19920;-74
2023/08/26 06:20:26;;;;;;;;;;;;;;;28.87;45.96;99592.56;3157803;28;20384;-73
2023/08/26 06:21:58;;;;;;;;;;;;;;;29.04;45.95;99596.66;3158090;28;19924;-73
2023/08/26 06:23:29;;;;;;;;;;;;;;;29.22;45.46;99596.19;3158010;28;20320;-74
2023/08/26 06:25:00;;;;;;;;;;;;;;;29.34;45.66;99597.28;3157645;28;20011;-74
2023/08/26 06:26:32;;;;;;;;;;;;;;;29.46;45.56;99593.06;3156884;28;19927;-74
2023/08/26 06:28:03;;;;;;;;;;;;;;;29.64;45.33;99594.44;3157703;28;19924;-73
2023/08/26 06:29:35;;;;;;;;;;;;;;;29.75;45.04;99591.16;3157541;28;19920;-74
2023/08/26 06:31:06;;;;;;;;;;;;;;;29.78;44.97;99593.44;3157680;28;20317;-74
2023/08/26 06:32:38;;;;;;;;;;;;;;;29.90;44.46;99585.66;3157745;28;19924;-74
2023/08/26 06:34:08;;;;;;;;;;;;;;;29.99;44.39;99589.81;3153559;28;19927;-74
2023/08/26 06:35:40;;;;;;;;;;;;;;;30.07;44.16;99589.66;3157774;28;19924;-74
2023/08/26 06:37:10;;;;;;;;;;;;;;;30.13;43.80;99588.84;3157357;28;20316;-74
2023/08/26 06:38:42;;;;;;;;;;;;;;;30.17;43.70;99583.91;3157735;28;19961;-74
2023/08/26 06:40:13;;;;;;;;;;;;;;;30.10;43.33;99597.31;3157845;28;19920;-74
2023/08/26 06:41:44;;;;;;;;;;;;;;;29.92;43.45;99597.84;3157389;28;19924;-74
2023/08/26 06:43:15;;;;;;;;;;;;;;;29.64;43.38;99597.94;3155017;28;19963;-74
2023/08/26 06:44:48;;;;;;;;;;;;;;;29.54;43.63;99605.47;3157295;28;20330;-74
2023/08/26 06:46:18;;;;;;;;;;;;;;;29.59;43.65;99596.84;3157825;28;19927;-74
2023/08/26 06:47:50;;;;;;;;;;;;;;;29.63;43.38;99601.63;3153564;28;19920;-74
2023/08/26 06:49:20;;;;;;;;;;;;;;;29.53;43.37;99606.50;3132533;28;19925;-74
2023/08/26 06:50:52;;;;;;;;;;;;;;;29.43;43.39;99606.88;3151348;28;20464;-73
2023/08/26 06:52:22;;;;;;;;;;;;;;;29.36;43.29;99603.28;3156192;28;19920;-74
2023/08/26 06:53:55;;;;;;;;;;;;;;;29.29;43.56;99605.13;3157791;28;20320;-74
2023/08/26 06:55:26;;;;;;;;;;;;;;;29.34;43.11;99604.50;3157560;28;19973;-73
2023/08/26 06:56:57;;;;;;;;;;;;;;;29.41;43.24;99608.91;3157401;28;20350;-74
2023/08/26 06:58:28;;;;;;;;;;;;;;;29.49;43.25;99610.63;3149680;28;19920;-74
2023/08/26 07:00:01;;;;;;;;;;;;;;;29.55;42.80;99604.47;3157721;28;19926;-74
2023/08/26 07:01:34;;;;;;;;;;;;;;;29.61;42.67;99603.69;3147958;28;20362;-74
2023/08/26 07:03:05;;;;;;;;;;;;;;;29.68;42.80;99601.88;3153810;28;20360;-74
2023/08/26 07:04:37;;;;;;;;;;;;;;;29.70;42.47;99602.50;3157578;28;19920;-74
2023/08/26 07:06:07;;;;;;;;;;;;;;;29.75;42.34;99601.91;3157769;28;19920;-73
2023/08/26 07:07:39;;;;;;;;;;;;;;;29.78;42.30;99593.44;3157251;28;19920;-74
2023/08/26 07:09:11;;;;;;;;;;;;;;;29.87;42.04;99603.00;3157715;28;19999;-74
2023/08/26 07:10:44;;;;;;;;;;;;;;;30.01;41.99;99598.53;3157766;28;20046;-74
2023/08/26 07:12:15;;;;;;;;;;;;;;;30.13;42.04;99599.59;3157436;28;19992;-74
2023/08/26 07:13:46;;;;;;;;;;;;;;;30.20;41.93;99598.78;3148405;28;19928;-74
2023/08/26 07:15:18;;;;;;;;;;;;;;;30.22;41.97;99599.44;3157620;28;20023;-74
2023/08/26 07:16:50;;;;;;;;;;;;;;;30.30;42.01;99594.72;3154122;28;20312;-74
2023/08/26 07:18:21;;;;;;;;;;;;;;;30.43;41.56;99601.97;3156324;28;19920;-74
2023/08/26 07:19:52;;;;;;;;;;;;;;;30.59;41.59;99598.94;3157750;28;19935;-74
2023/08/26 07:21:24;;;;;;;;;;;;;;;30.75;41.33;99599.56;3157113;28;19977;-74
2023/08/26 07:22:54;;;;;;;;;;;;;;;30.89;41.05;99597.75;3157281;28;20332;-74
2023/08/26 07:24:26;;;;;;;;;;;;;;;30.87;40.83;99600.63;3157512;28;19926;-74
2023/08/26 07:25:56;;;;;;;;;;;;;;;30.90;40.88;99589.47;3157439;28;20610;-74
2023/08/26 07:27:28;;;;;;;;;;;;;;;31.00;40.93;99597.13;3157283;28;19923;-74
2023/08/26 07:28:58;;;;;;;;;;;;;;;31.14;40.79;99596.06;3157003;28;20285;-74
2023/08/26 07:30:31;;;;;;;;;;;;;;;31.36;40.77;99593.22;3157538;28;19920;-74
2023/08/26 07:32:02;;;;;;;;;;;;;;;31.54;40.30;99584.47;3152510;28;20466;-74
2023/08/26 07:33:33;;;;;;;;;;;;;;;31.69;40.14;99588.56;3157163;28;19923;-74
2023/08/26 07:35:05;;;;;;;;;;;;;;;31.86;40.08;99586.25;3157464;28;20397;-74
2023/08/26 07:36:36;;;;;;;;;;;;;;;32.05;39.82;99591.78;3157263;28;20302;-74
2023/08/26 07:38:08;;;;;;;;;;;;;;;32.25;39.68;99595.19;3158126;28;19930;-74
2023/08/26 07:39:38;;;;;;;;;;;;;;;32.41;39.57;99583.91;3153867;28;19927;-74
2023/08/26 07:41:10;;;;;;;;;;;;;;;32.56;39.11;99594.41;3159189;28;20393;-74
2023/08/26 07:42:41;;;;;;;;;;;;;;;32.72;38.65;99584.16;3159463;28;20305;-74
2023/08/26 07:44:13;;;;;;;;;;;;;;;32.77;38.20;99587.81;3159837;28;20155;-74
2023/08/26 07:45:45;;;;;;;;;;;;;;;32.86;38.37;99585.69;3158978;28;20372;-74
2023/08/26 07:47:17;;;;;;;;;;;;;;;33.00;38.05;99581.88;3148985;28;19920;-74
2023/08/26 07:48:47;;;;;;;;;;;;;;;33.21;37.78;99579.81;3155110;28;19967;-74
2023/08/26 07:50:19;;;;;;;;;;;;;;;33.36;37.58;99582.97;3159866;28;19920;-74
2023/08/26 07:51:49;;;;;;;;;;;;;;;33.56;37.30;99580.09;3159477;28;20301;-74
2023/08/26 07:53:21;;;;;;;;;;;;;;;33.87;36.84;99575.59;3159762;28;19941;-74
2023/08/26 07:54:51;;;;;;;;;;;;;;;34.29;36.53;99578.41;3159726;28;20417;-74
2023/08/26 07:56:23;;;;;;;;;;;;;;;34.72;35.89;99577.34;3159891;28;19920;-74